Snoqualmie River: South Fork station

back to: Snoqualmie river
South Fork station Summary - (NOAA Hydrograph: GARW1)
Latest reading:
Sun12/17 05:15 am 10.24 ft 181 cfs (steady)
Past 24hr max:
Sat12/16 05:15 am 10.26 ft 184 cfs
Forecasted crests: (published Sat 12/16/17 03:15 pm)
Mon12/18 10:00 am 12.03 ft 811 cfs
Tue12/19 10:00 pm 12.06 ft 827 cfs

South Fork station Details

Latest Readings

Last 100 Readings:
Sun12/17 05:15 am 10.24 ft 181 cfs
Sun12/17 05:00 am 10.24 ft 181 cfs
Sun12/17 04:45 am 10.24 ft 181 cfs
Sun12/17 04:30 am 10.24 ft 181 cfs
Sun12/17 04:15 am 10.24 ft 181 cfs
Sun12/17 04:00 am 10.24 ft 181 cfs
Sun12/17 03:45 am 10.24 ft 181 cfs
Sun12/17 03:30 am 10.24 ft 181 cfs
Sun12/17 03:15 am 10.24 ft 181 cfs
Sun12/17 03:00 am 10.24 ft 181 cfs
Sun12/17 02:45 am 10.24 ft 181 cfs
Sun12/17 02:30 am 10.23 ft 179 cfs
Sun12/17 02:15 am 10.24 ft 181 cfs
Sun12/17 02:00 am 10.23 ft 179 cfs
Sun12/17 01:45 am 10.24 ft 181 cfs
Sun12/17 01:30 am 10.24 ft 181 cfs
Sun12/17 01:15 am 10.24 ft 181 cfs
Sun12/17 01:00 am 10.23 ft 179 cfs
Sun12/17 12:45 am 10.23 ft 179 cfs
Sun12/17 12:30 am 10.24 ft 181 cfs
Sun12/17 12:15 am 10.23 ft 179 cfs
Sun12/17 12:00 am 10.24 ft 181 cfs
Sat12/16 11:45 pm 10.23 ft 179 cfs
Sat12/16 11:30 pm 10.23 ft 179 cfs
Sat12/16 11:15 pm 10.23 ft 179 cfs
Sat12/16 11:00 pm 10.23 ft 179 cfs
Sat12/16 10:45 pm 10.24 ft 181 cfs
Sat12/16 10:30 pm 10.24 ft 181 cfs
Sat12/16 10:15 pm 10.24 ft 181 cfs
Sat12/16 10:00 pm 10.24 ft 181 cfs
Sat12/16 09:45 pm 10.24 ft 181 cfs
Sat12/16 09:30 pm 10.24 ft 181 cfs
Sat12/16 09:15 pm 10.24 ft 181 cfs
Sat12/16 09:00 pm 10.24 ft 181 cfs
Sat12/16 08:45 pm 10.24 ft 181 cfs
Sat12/16 08:30 pm 10.24 ft 181 cfs
Sat12/16 08:15 pm 10.24 ft 181 cfs
Sat12/16 08:00 pm 10.24 ft 181 cfs
Sat12/16 07:45 pm 10.24 ft 181 cfs
Sat12/16 07:30 pm 10.24 ft 181 cfs
Sat12/16 07:15 pm 10.24 ft 181 cfs
Sat12/16 07:00 pm 10.24 ft 181 cfs
Sat12/16 06:45 pm 10.24 ft 181 cfs
Sat12/16 06:30 pm 10.24 ft 181 cfs
Sat12/16 06:15 pm 10.24 ft 181 cfs
Sat12/16 06:00 pm 10.24 ft 181 cfs
Sat12/16 05:45 pm 10.24 ft 181 cfs
Sat12/16 05:30 pm 10.24 ft 181 cfs
Sat12/16 05:15 pm 10.24 ft 181 cfs
Sat12/16 05:00 pm 10.24 ft 181 cfs
Sat12/16 04:45 pm 10.24 ft 181 cfs
Sat12/16 04:30 pm 10.24 ft 181 cfs
Sat12/16 04:15 pm 10.24 ft 181 cfs
Sat12/16 04:00 pm 10.25 ft 182 cfs
Sat12/16 03:45 pm 10.24 ft 181 cfs
Sat12/16 03:30 pm 10.24 ft 181 cfs
Sat12/16 03:15 pm 10.24 ft 181 cfs
Sat12/16 03:00 pm 10.24 ft 181 cfs
Sat12/16 02:45 pm 10.25 ft 182 cfs
Sat12/16 02:30 pm 10.24 ft 181 cfs
Sat12/16 01:15 pm 10.25 ft 182 cfs
Sat12/16 01:00 pm 10.25 ft 182 cfs
Sat12/16 12:45 pm 10.24 ft 181 cfs
Sat12/16 12:30 pm 10.25 ft 182 cfs
Sat12/16 12:15 pm 10.24 ft 181 cfs
Sat12/16 12:00 pm 10.25 ft 182 cfs
Sat12/16 11:45 am 10.25 ft 182 cfs
Sat12/16 11:30 am 10.25 ft 182 cfs
Sat12/16 11:15 am 10.25 ft 182 cfs
Sat12/16 11:00 am 10.25 ft 182 cfs
Sat12/16 10:45 am 10.25 ft 182 cfs
Sat12/16 10:30 am 10.24 ft 181 cfs
Sat12/16 10:15 am 10.25 ft 182 cfs
Sat12/16 10:00 am 10.25 ft 182 cfs
Sat12/16 09:45 am 10.25 ft 182 cfs
Sat12/16 09:30 am 10.25 ft 182 cfs
Sat12/16 09:15 am 10.25 ft 182 cfs
Sat12/16 09:00 am 10.25 ft 182 cfs
Sat12/16 08:45 am 10.25 ft 182 cfs
Sat12/16 08:30 am 10.25 ft 182 cfs
Sat12/16 08:15 am 10.26 ft 184 cfs
Sat12/16 08:00 am 10.25 ft 182 cfs
Sat12/16 07:45 am 10.25 ft 182 cfs
Sat12/16 07:30 am 10.26 ft 184 cfs
Sat12/16 07:15 am 10.26 ft 184 cfs
Sat12/16 07:00 am 10.26 ft 184 cfs
Sat12/16 06:45 am 10.26 ft 184 cfs
Sat12/16 06:30 am 10.26 ft 184 cfs
Sat12/16 06:15 am 10.26 ft 184 cfs
Sat12/16 06:00 am 10.26 ft 184 cfs
Sat12/16 05:45 am 10.26 ft 184 cfs
Sat12/16 05:30 am 10.26 ft 184 cfs
Sat12/16 05:15 am 10.26 ft 184 cfs
Sat12/16 05:00 am 10.27 ft 186 cfs
Sat12/16 04:45 am 10.26 ft 184 cfs
Sat12/16 04:30 am 10.27 ft 186 cfs
Sat12/16 04:15 am 10.27 ft 186 cfs
Sat12/16 04:00 am 10.27 ft 186 cfs
Sat12/16 03:45 am 10.27 ft 186 cfs
Sat12/16 03:30 am 10.27 ft 186 cfs

Latest Forecasts

Currently Forecasted Readings:
Sat12/16 04:00 pm 10.22 ft 177 cfs
Sat12/16 10:00 pm 10.21 ft 176 cfs
Sun12/17 04:00 am 10.21 ft 174 cfs
Sun12/17 10:00 am 10.42 ft 217 cfs
Sun12/17 04:00 pm 11.08 ft 369 cfs
Sun12/17 10:00 pm 11.64 ft 605 cfs
Mon12/18 04:00 am 12.01 ft 796 cfs
Mon12/18 10:00 am 12.03 ft 811 cfs
Mon12/18 04:00 pm 11.8 ft 688 cfs
Mon12/18 10:00 pm 11.54 ft 558 cfs
Tue12/19 04:00 am 11.5 ft 539 cfs
Tue12/19 10:00 am 11.58 ft 578 cfs
Tue12/19 04:00 pm 11.93 ft 755 cfs
Tue12/19 10:00 pm 12.06 ft 827 cfs
Wed12/20 04:00 am 11.89 ft 731 cfs
Wed12/20 10:00 am 11.59 ft 582 cfs
Wed12/20 04:00 pm 11.38 ft 486 cfs
Wed12/20 10:00 pm 11.26 ft 434 cfs
Thu12/21 04:00 am 11.17 ft 400 cfs
Thu12/21 10:00 am 11.09 ft 371 cfs
Thu12/21 04:00 pm 11.0 ft 348 cfs
Thu12/21 10:00 pm 10.94 ft 328 cfs
Fri12/22 04:00 am 10.88 ft 311 cfs
Fri12/22 10:00 am 10.79 ft 294 cfs
Fri12/22 04:00 pm 10.72 ft 280 cfs
Fri12/22 10:00 pm 10.66 ft 266 cfs
Sat12/23 04:00 am 10.6 ft 254 cfs
Sat12/23 10:00 am 10.55 ft 242 cfs
Sat12/23 04:00 pm 10.5 ft 231 cfs
Sat12/23 10:00 pm 10.45 ft 222 cfs
Sun12/24 04:00 am 10.41 ft 214 cfs
Sun12/24 10:00 am 10.36 ft 205 cfs
Sun12/24 04:00 pm 10.32 ft 196 cfs
Sun12/24 10:00 pm 10.29 ft 189 cfs
Mon12/25 04:00 am 10.25 ft 183 cfs
Mon12/25 10:00 am 10.22 ft 176 cfs
Mon12/25 04:00 pm 10.18 ft 169 cfs
Mon12/25 10:00 pm 10.15 ft 164 cfs
Tue12/26 04:00 am 10.13 ft 159 cfs

Snoqualmie River flood gauge data supplied by the
National Weather Service Northwest River Forecast Center.

Sign up for Floodzilla alerts.